Time;durP1;ratioP1;P1;durP2;ratioP2;P2;SDS_P1;SDS_P2;PMS_P1;PMS_P2;Temp;Humidity;BMP_temperature;BMP_pressure;BME280_temperature;BME280_humidity;BME280_pressure;Samples;Min_cycle;Max_cycle;Signal;HPM_P1;HPM_P2
2024/03/19 00:00:19;;;;;;;14.40;13.40;;;12.50;39.00;;;;;;4919927;29;20462;-81
2024/03/19 00:02:46;;;;;;;13.60;12.80;;;12.60;38.40;;;;;;4901969;29;20262;-81
2024/03/19 00:05:11;;;;;;;14.40;13.37;;;12.70;38.00;;;;;;4920745;29;20480;-81
2024/03/19 00:07:37;;;;;;;13.60;12.87;;;12.80;38.20;;;;;;4905321;29;20437;-81
2024/03/19 00:10:03;;;;;;;13.43;12.43;;;12.80;38.30;;;;;;4921496;29;20225;-80
2024/03/19 00:12:36;;;;;;;14.30;13.30;;;12.90;37.10;;;;;;4912434;29;20224;-81
2024/03/19 00:15:05;;;;;;;12.17;11.57;;;12.90;36.80;;;;;;4920851;29;20216;-80
2024/03/19 00:17:30;;;;;;;12.80;12.00;;;12.90;36.70;;;;;;4896729;29;20464;-81
2024/03/19 00:19:58;;;;;;;13.00;12.00;;;12.80;36.80;;;;;;4906274;29;20473;-82
2024/03/19 00:22:38;;;;;;;13.20;12.60;;;12.60;37.80;;;;;;4905055;29;20192;-81
2024/03/19 00:25:07;;;;;;;14.07;13.27;;;12.30;39.00;;;;;;4911320;29;20480;-81
2024/03/19 00:30:49;;;;;;;13.50;12.60;;;12.30;40.10;;;;;;4905537;29;20496;-81
2024/03/19 00:33:15;;;;;;;12.47;11.67;;;12.50;39.40;;;;;;4928878;29;20425;-81
2024/03/19 00:35:42;;;;;;;12.63;11.93;;;12.60;38.90;;;;;;4903255;29;20429;-82
2024/03/19 00:38:36;;;;;;;12.87;12.03;;;12.70;38.40;;;;;;4887839;29;20598;-81
2024/03/19 00:41:02;;;;;;;12.50;11.50;;;12.70;38.10;;;;;;4916026;29;20429;-81
2024/03/19 00:43:29;;;;;;;12.87;11.97;;;12.70;37.70;;;;;;4928651;29;20452;-82
2024/03/19 00:45:55;;;;;;;13.40;12.63;;;12.80;37.40;;;;;;4911454;29;20181;-81
2024/03/19 00:48:22;;;;;;;13.00;12.20;;;12.90;37.00;;;;;;4921435;29;20480;-82
2024/03/19 00:50:48;;;;;;;12.70;11.90;;;12.60;37.00;;;;;;4920649;29;20425;-82
2024/03/19 00:53:14;;;;;;;14.23;13.47;;;12.50;38.70;;;;;;4918475;29;20456;-82
2024/03/19 00:55:40;;;;;;;13.33;12.50;;;12.30;38.40;;;;;;4889967;29;20437;-81
2024/03/19 00:58:06;;;;;;;13.00;12.30;;;12.40;39.30;;;;;;4902657;29;20484;-82
2024/03/19 01:00:32;;;;;;;12.93;12.20;;;12.50;39.10;;;;;;4910206;29;20445;-82
2024/03/19 01:02:57;;;;;;;13.07;12.13;;;12.50;38.50;;;;;;4916278;29;20515;-81
2024/03/19 01:05:23;;;;;;;12.50;11.90;;;12.60;38.00;;;;;;4910316;29;20634;-81
2024/03/19 01:08:01;;;;;;;13.13;12.33;;;12.70;37.70;;;;;;4903330;29;20184;-82
2024/03/19 01:10:29;;;;;;;13.13;12.43;;;12.80;37.20;;;;;;4915730;29;20454;-81
2024/03/19 01:12:55;;;;;;;12.67;12.07;;;12.80;36.50;;;;;;4919601;29;20425;-81
2024/03/19 01:15:20;;;;;;;13.37;12.37;;;12.80;36.30;;;;;;4915392;29;20508;-81
2024/03/19 01:17:46;;;;;;;12.47;11.87;;;12.80;36.30;;;;;;4909242;29;20303;-81
2024/03/19 01:20:12;;;;;;;12.77;12.17;;;12.80;36.40;;;;;;4907237;29;20464;-81
2024/03/19 01:22:38;;;;;;;13.03;12.23;;;12.80;36.00;;;;;;4902787;29;20263;-81
2024/03/19 01:25:09;;;;;;;12.07;11.40;;;12.80;36.10;;;;;;4914562;29;20658;-81
2024/03/19 01:27:34;;;;;;;13.20;12.40;;;12.80;36.10;;;;;;4887204;29;20444;-81
2024/03/19 01:30:00;;;;;;;12.20;11.60;;;12.80;36.10;;;;;;4919680;29;20437;-82
2024/03/19 01:32:26;;;;;;;12.60;11.70;;;12.80;36.10;;;;;;4904083;29;20184;-81
2024/03/19 01:34:51;;;;;;;12.30;11.60;;;12.80;36.20;;;;;;4927386;29;20436;-82
2024/03/19 01:37:17;;;;;;;13.17;12.47;;;12.80;36.10;;;;;;4918331;29;20209;-82
2024/03/19 01:39:43;;;;;;;13.50;12.70;;;12.80;35.80;;;;;;4909879;29;20232;-81
2024/03/19 01:42:08;;;;;;;13.50;12.40;;;12.80;35.70;;;;;;4914075;29;20183;-81
2024/03/19 01:44:34;;;;;;;13.67;13.00;;;12.70;35.80;;;;;;4913366;29;20177;-81
2024/03/19 01:46:59;;;;;;;14.20;13.27;;;12.70;36.10;;;;;;4932885;29;20546;-82
2024/03/19 01:49:25;;;;;;;14.00;13.30;;;12.60;36.00;;;;;;4910482;29;20827;-82
2024/03/19 01:51:52;;;;;;;13.70;12.80;;;12.60;36.00;;;;;;4910177;29;20181;-81
2024/03/19 01:54:18;;;;;;;13.60;12.90;;;12.60;35.70;;;;;;4920009;29;20247;-82
2024/03/19 01:56:43;;;;;;;13.17;12.47;;;12.60;35.60;;;;;;4919614;29;20539;-81
2024/03/19 01:59:09;;;;;;;13.03;12.40;;;12.60;35.70;;;;;;4903457;29;20736;-82
2024/03/19 02:01:34;;;;;;;14.13;13.23;;;12.60;35.60;;;;;;4903318;29;20638;-81
2024/03/19 02:04:00;;;;;;;13.40;12.43;;;12.60;35.70;;;;;;4911045;29;20177;-80
2024/03/19 02:06:26;;;;;;;13.37;12.60;;;12.60;35.70;;;;;;4930019;29;20208;-81
2024/03/19 02:09:04;;;;;;;14.67;13.80;;;12.60;35.90;;;;;;4927511;29;20197;-82
2024/03/19 02:11:33;;;;;;;15.43;14.53;;;12.60;35.70;;;;;;4937360;29;20218;-81
2024/03/19 02:14:07;;;;;;;12.97;12.27;;;12.60;35.50;;;;;;4932572;29;20456;-81
2024/03/19 02:16:34;;;;;;;14.40;13.70;;;12.40;35.30;;;;;;4919025;29;20423;-81
2024/03/19 02:19:04;;;;;;;13.90;13.20;;;12.10;36.00;;;;;;4906128;29;20464;-81
2024/03/19 02:21:31;;;;;;;14.83;13.93;;;11.80;37.30;;;;;;4917826;29;20934;-81
2024/03/19 02:23:58;;;;;;;14.80;13.93;;;11.50;38.50;;;;;;4908266;29;20424;-81
2024/03/19 02:26:26;;;;;;;15.13;14.33;;;11.50;39.10;;;;;;4914210;29;20425;-80
2024/03/19 02:28:52;;;;;;;13.67;12.93;;;11.30;39.90;;;;;;4918459;29;20473;-81
2024/03/19 02:31:22;;;;;;;14.10;12.93;;;11.30;40.90;;;;;;4905494;29;20421;-82
2024/03/19 02:34:06;;;;;;;13.33;12.43;;;11.40;40.60;;;;;;4919914;29;20456;-82
2024/03/19 02:36:31;;;;;;;14.60;13.70;;;11.40;39.90;;;;;;4932662;29;20424;-82
2024/03/19 02:38:57;;;;;;;13.47;12.77;;;11.40;39.60;;;;;;4921396;29;20204;-80
2024/03/19 02:41:22;;;;;;;13.77;13.07;;;11.60;39.90;;;;;;4918883;29;20176;-80
2024/03/19 02:43:49;;;;;;;14.10;13.30;;;11.60;39.00;;;;;;4918772;29;20652;-81
2024/03/19 02:46:15;;;;;;;13.87;13.07;;;11.50;38.60;;;;;;4925814;29;20193;-80
2024/03/19 02:48:50;;;;;;;13.97;13.27;;;11.50;39.00;;;;;;4916429;29;20440;-81
2024/03/19 02:51:46;;;;;;;13.40;12.70;;;11.60;39.40;;;;;;4924517;29;20199;-81
2024/03/19 02:54:15;;;;;;;13.33;12.63;;;11.70;38.40;;;;;;4918267;29;20428;-80
2024/03/19 02:56:41;;;;;;;13.93;13.20;;;11.80;38.10;;;;;;4909030;29;20571;-81
2024/03/19 02:59:07;;;;;;;13.87;13.17;;;11.90;37.50;;;;;;4910019;29;20475;-81
2024/03/19 03:01:32;;;;;;;13.13;12.43;;;12.00;36.90;;;;;;4909766;29;20232;-81
2024/03/19 03:03:58;;;;;;;13.80;12.93;;;12.10;36.50;;;;;;4919767;29;20512;-81
2024/03/19 03:06:26;;;;;;;14.50;13.80;;;12.10;36.00;;;;;;4931194;29;20601;-82
2024/03/19 03:08:52;;;;;;;13.60;12.90;;;12.20;35.90;;;;;;4909063;29;20607;-81
2024/03/19 03:11:18;;;;;;;12.70;12.10;;;11.80;35.10;;;;;;4933546;29;20568;-81
2024/03/19 03:13:43;;;;;;;13.80;13.10;;;11.50;36.70;;;;;;4908462;29;20209;-81
2024/03/19 03:16:09;;;;;;;14.53;13.70;;;11.40;36.80;;;;;;4917584;29;20417;-81
2024/03/19 03:18:36;;;;;;;14.90;14.10;;;11.40;37.70;;;;;;4902801;29;20208;-81
2024/03/19 06:10:54;;;;;;;17.53;16.63;;;11.60;31.10;;;;;;4928997;29;20436;-82
2024/03/19 06:40:45;;;;;;;15.90;15.10;;;11.70;32.10;;;;;;5123033;23;21086;-80
2024/03/19 06:50:00;;;;;;;17.57;16.67;;;11.80;32.10;;;;;;4938174;29;20492;-81
2024/03/19 08:25:33;;;;;;;12.97;12.10;;;12.80;32.10;;;;;;4913447;29;20468;-82
2024/03/19 08:27:58;;;;;;;14.67;13.77;;;12.70;31.90;;;;;;4913620;29;20433;-81
2024/03/19 08:30:26;;;;;;;13.07;12.37;;;12.80;32.00;;;;;;4935448;29;20807;-80
2024/03/19 08:32:56;;;;;;;13.53;12.73;;;12.80;31.20;;;;;;4921626;29;20256;-80
2024/03/19 08:35:46;;;;;;;13.03;12.23;;;12.80;31.70;;;;;;4914238;29;20461;-83
2024/03/19 08:45:46;;;;;;;14.67;13.80;;;13.00;31.20;;;;;;4842122;29;20427;-84
2024/03/19 08:55:38;;;;;;;14.53;13.70;;;12.90;31.20;;;;;;4809096;29;20432;-84
2024/03/19 08:58:32;;;;;;;13.90;13.20;;;12.80;32.10;;;;;;4824562;29;20477;-82
2024/03/19 09:01:57;;;;;;;14.70;13.90;;;12.90;32.50;;;;;;4808220;29;20461;-83
2024/03/19 09:04:24;;;;;;;13.87;13.17;;;12.90;32.20;;;;;;4805214;29;20995;-83
2024/03/19 09:07:36;;;;;;;;;;;;;;;;;;;;;
2024/03/19 09:14:02;;;;;;;15.50;14.60;;;13.20;31.70;;;;;;4844367;29;20440;-85
2024/03/19 09:16:40;;;;;;;16.00;15.10;;;13.20;31.50;;;;;;4829822;29;20428;-84
2024/03/19 09:22:18;;;;;;;13.40;12.70;;;13.20;32.20;;;;;;5006837;23;21024;-80
2024/03/19 09:24:53;;;;;;;12.27;11.67;;;13.30;31.60;;;;;;4908559;29;20436;-81
2024/03/19 09:27:22;;;;;;;13.50;12.80;;;13.30;30.60;;;;;;4909276;29;20437;-81
2024/03/19 09:29:48;;;;;;;14.40;13.50;;;13.40;29.90;;;;;;4893418;29;20508;-80
2024/03/19 09:32:17;;;;;;;12.93;12.33;;;13.40;30.10;;;;;;4909170;29;20440;-80
2024/03/19 09:34:43;;;;;;;13.13;12.43;;;13.40;29.50;;;;;;4917156;29;20200;-81
2024/03/19 09:37:09;;;;;;;13.27;12.53;;;13.30;29.90;;;;;;4902027;29;21018;-81
2024/03/19 09:39:35;;;;;;;14.00;13.20;;;13.20;31.30;;;;;;4910758;29;20431;-81
2024/03/19 09:42:22;;;;;;;14.23;13.47;;;13.20;31.50;;;;;;4921493;29;20455;-80
2024/03/19 09:44:51;;;;;;;13.20;12.50;;;13.30;30.40;;;;;;4886950;29;20350;-80
2024/03/19 09:47:26;;;;;;;13.40;12.70;;;13.30;30.20;;;;;;4898686;29;20437;-79
2024/03/19 09:50:04;;;;;;;14.00;13.10;;;13.40;30.00;;;;;;4900161;29;20474;-80
2024/03/19 09:52:30;;;;;;;12.17;11.57;;;13.60;30.00;;;;;;4902472;29;20441;-79
2024/03/19 09:55:00;;;;;;;13.30;12.30;;;13.70;30.00;;;;;;4906590;29;20477;-79
2024/03/19 09:57:32;;;;;;;12.63;11.93;;;13.80;30.00;;;;;;4919380;29;20244;-81
2024/03/19 10:00:15;;;;;;;12.63;11.83;;;13.90;29.30;;;;;;4919854;29;20445;-80
2024/03/19 10:02:40;;;;;;;13.90;13.17;;;14.00;28.90;;;;;;4936107;29;20458;-81
2024/03/19 10:05:51;;;;;;;13.07;12.47;;;14.00;28.90;;;;;;4941743;29;20420;-80
2024/03/19 10:08:29;;;;;;;12.20;11.70;;;14.00;28.80;;;;;;4923883;29;20254;-79
2024/03/19 10:11:02;;;;;;;12.63;11.93;;;14.10;28.20;;;;;;4919217;29;20445;-80
2024/03/19 10:13:28;;;;;;;14.00;13.30;;;14.10;28.70;;;;;;4915794;29;20424;-81
2024/03/19 10:16:04;;;;;;;13.63;13.00;;;14.20;28.30;;;;;;4911659;29;20953;-80
2024/03/19 10:18:33;;;;;;;12.17;11.47;;;14.20;28.60;;;;;;4910115;29;20202;-81
2024/03/19 10:21:03;;;;;;;14.20;13.50;;;14.30;28.10;;;;;;4911290;29;20492;-81
2024/03/19 10:23:31;;;;;;;13.87;12.97;;;14.30;28.30;;;;;;4892276;29;20425;-80
2024/03/19 10:26:27;;;;;;;13.67;12.70;;;14.40;28.20;;;;;;4915133;29;20468;-79
2024/03/19 10:29:17;;;;;;;13.77;13.07;;;14.50;28.10;;;;;;4902873;29;20437;-81
2024/03/19 10:32:12;;;;;;;13.43;12.53;;;14.50;27.70;;;;;;4915663;29;20443;-80
2024/03/19 10:34:56;;;;;;;13.97;13.20;;;14.50;27.80;;;;;;4896818;29;20826;-81
2024/03/19 10:37:24;;;;;;;13.67;12.83;;;14.60;27.60;;;;;;4894826;29;20519;-80
2024/03/19 10:39:51;;;;;;;12.67;11.97;;;14.60;27.50;;;;;;4901309;29;20464;-81
2024/03/19 10:42:18;;;;;;;11.87;11.30;;;14.70;27.80;;;;;;4897806;29;20425;-80
2024/03/19 10:45:03;;;;;;;11.00;10.40;;;14.90;26.80;;;;;;4915182;29;20416;-82
2024/03/19 10:47:32;;;;;;;11.37;10.87;;;15.10;26.70;;;;;;4908426;29;20421;-81
2024/03/19 10:49:59;;;;;;;11.23;10.73;;;15.10;25.60;;;;;;4908470;29;20455;-81
2024/03/19 10:53:14;;;;;;;11.70;11.10;;;15.20;25.80;;;;;;4918707;29;20425;-83
2024/03/19 10:55:43;;;;;;;10.17;9.67;;;15.40;25.60;;;;;;4902813;29;20484;-83
2024/03/19 10:58:14;;;;;;;9.23;8.83;;;15.60;23.50;;;;;;4906843;29;20460;-80
2024/03/19 11:00:41;;;;;;;9.67;9.27;;;15.60;22.50;;;;;;4940771;29;20469;-78
2024/03/19 11:03:15;;;;;;;9.20;8.70;;;15.60;22.00;;;;;;4920646;29;20463;-86
2024/03/19 11:06:10;;;;;;;9.93;9.20;;;15.60;22.20;;;;;;4914148;29;20555;-84
2024/03/19 11:08:38;;;;;;;9.30;8.90;;;15.40;23.60;;;;;;4901645;29;20433;-82
2024/03/19 11:11:10;;;;;;;9.53;9.03;;;15.40;23.70;;;;;;4900468;29;20448;-82
2024/03/19 11:13:41;;;;;;;9.93;9.53;;;15.50;22.00;;;;;;4900162;29;20421;-81
2024/03/19 11:16:15;;;;;;;10.40;9.90;;;15.60;22.10;;;;;;4901586;29;20428;-81
2024/03/19 11:18:48;;;;;;;9.70;9.17;;;15.50;21.70;;;;;;4892569;29;20966;-81
2024/03/19 11:21:22;;;;;;;9.57;9.17;;;15.60;22.10;;;;;;4912477;29;20455;-82
2024/03/19 11:23:55;;;;;;;9.00;8.70;;;15.70;21.40;;;;;;4906200;29;20472;-83
2024/03/19 11:26:22;;;;;;;9.67;9.17;;;15.80;21.40;;;;;;4899581;29;20428;-81
2024/03/19 11:29:02;;;;;;;9.73;9.33;;;15.80;21.40;;;;;;4916963;29;20421;-81
2024/03/19 11:31:38;;;;;;;9.57;9.07;;;15.90;21.50;;;;;;4902334;29;20860;-81
2024/03/19 11:34:05;;;;;;;9.70;9.23;;;15.90;21.00;;;;;;4908330;29;20428;-80
2024/03/19 11:36:33;;;;;;;9.23;8.63;;;15.90;21.00;;;;;;4922309;29;20449;-81
2024/03/19 11:38:59;;;;;;;9.70;9.30;;;15.90;20.90;;;;;;4905756;29;20471;-79
2024/03/19 11:41:24;;;;;;;9.50;9.10;;;15.90;20.70;;;;;;4924474;29;21024;-81
2024/03/19 11:44:22;;;;;;;9.83;9.27;;;15.90;21.20;;;;;;4921142;29;20181;-83
2024/03/19 11:47:04;;;;;;;9.03;8.53;;;15.90;21.30;;;;;;4913272;29;20195;-83
2024/03/19 11:49:30;;;;;;;8.90;8.40;;;16.00;22.90;;;;;;4909934;29;20421;-80
2024/03/19 11:51:56;;;;;;;9.20;8.80;;;16.00;21.30;;;;;;4898508;29;20853;-81
2024/03/19 11:54:22;;;;;;;10.57;9.97;;;16.00;21.00;;;;;;4899095;29;20421;-80
2024/03/19 11:56:49;;;;;;;10.00;9.50;;;16.00;21.10;;;;;;4914785;29;20176;-80
2024/03/19 11:59:14;;;;;;;9.67;9.00;;;15.90;21.30;;;;;;4903242;29;20176;-80
2024/03/19 12:01:40;;;;;;;9.90;9.30;;;16.00;21.20;;;;;;4919820;29;20984;-81
2024/03/19 12:04:14;;;;;;;9.63;9.23;;;16.00;21.70;;;;;;4918349;29;20185;-82
2024/03/19 12:06:54;;;;;;;11.03;10.33;;;16.00;21.80;;;;;;4907022;29;20177;-81
2024/03/19 12:09:23;;;;;;;11.43;10.83;;;16.00;21.30;;;;;;4920364;29;20902;-81
2024/03/19 12:11:50;;;;;;;11.37;10.83;;;16.00;21.50;;;;;;4904794;29;20259;-82
2024/03/19 12:14:17;;;;;;;11.60;11.10;;;16.00;21.60;;;;;;4896998;29;20425;-81
2024/03/19 12:16:50;;;;;;;10.50;10.10;;;16.00;21.50;;;;;;4921172;29;20421;-81
2024/03/19 12:19:18;;;;;;;10.50;10.10;;;15.90;21.20;;;;;;4921445;29;20415;-81
2024/03/19 12:21:48;;;;;;;10.17;9.77;;;15.90;21.70;;;;;;4920766;29;20975;-81
2024/03/19 12:24:15;;;;;;;11.40;10.80;;;15.90;21.60;;;;;;4937629;29;20479;-81
2024/03/19 12:26:43;;;;;;;11.00;10.30;;;15.90;21.80;;;;;;4921017;29;20420;-80
2024/03/19 12:29:14;;;;;;;9.80;9.40;;;15.90;21.80;;;;;;4938488;29;20412;-81
2024/03/19 12:31:52;;;;;;;10.53;10.00;;;15.90;21.70;;;;;;4917167;29;20444;-81
2024/03/19 12:34:37;;;;;;;10.63;9.93;;;16.00;21.50;;;;;;4908138;29;20430;-81
2024/03/19 12:37:13;;;;;;;11.13;10.47;;;16.00;21.40;;;;;;4905120;29;20480;-80
2024/03/19 12:39:39;;;;;;;10.70;10.30;;;16.00;21.30;;;;;;4924050;29;20452;-81
2024/03/19 12:42:08;;;;;;;15.37;14.40;;;16.00;21.50;;;;;;4908631;29;20456;-83
2024/03/19 12:44:34;;;;;;;10.73;9.93;;;16.00;21.60;;;;;;4922534;29;20183;-80
2024/03/19 12:47:12;;;;;;;11.77;11.17;;;15.90;21.70;;;;;;4922336;29;20416;-81
2024/03/19 12:49:39;;;;;;;11.40;10.80;;;16.00;21.00;;;;;;4933725;29;20177;-83
2024/03/19 12:52:05;;;;;;;11.10;10.60;;;16.00;21.10;;;;;;4903650;29;20445;-81
2024/03/19 12:54:57;;;;;;;10.97;10.30;;;16.00;21.20;;;;;;4920848;29;20794;-81
2024/03/19 12:57:23;;;;;;;11.37;10.67;;;16.00;21.20;;;;;;4938884;29;20455;-81
2024/03/19 12:59:50;;;;;;;11.37;10.80;;;16.10;21.20;;;;;;4923566;29;20420;-81
2024/03/19 13:02:16;;;;;;;10.83;10.33;;;16.10;21.20;;;;;;4924498;29;20545;-80
2024/03/19 13:04:42;;;;;;;10.60;10.10;;;16.00;20.60;;;;;;4918833;29;20421;-81
2024/03/19 13:07:08;;;;;;;10.60;10.00;;;16.00;21.00;;;;;;4924834;29;20431;-81
2024/03/19 13:09:34;;;;;;;10.30;9.80;;;16.00;21.40;;;;;;4923670;29;20184;-81
2024/03/19 13:12:00;;;;;;;10.50;10.10;;;16.00;21.10;;;;;;4923278;29;21008;-81
2024/03/19 13:14:25;;;;;;;10.87;10.20;;;16.10;21.20;;;;;;4915435;29;20176;-81
2024/03/19 13:16:51;;;;;;;9.70;9.20;;;16.10;20.90;;;;;;4922382;29;20176;-81
2024/03/19 13:19:16;;;;;;;10.30;9.90;;;16.10;20.50;;;;;;4922038;29;20580;-81
2024/03/19 13:21:42;;;;;;;9.93;9.53;;;16.10;20.60;;;;;;4938453;29;20572;-81
2024/03/19 13:24:08;;;;;;;9.37;9.07;;;16.10;20.30;;;;;;4938781;29;20675;-80
2024/03/19 13:26:34;;;;;;;9.53;9.10;;;16.20;20.10;;;;;;4939512;29;20180;-81
2024/03/19 13:29:00;;;;;;;9.47;8.97;;;16.20;19.40;;;;;;4930608;29;20510;-81
2024/03/19 13:31:26;;;;;;;9.30;8.90;;;16.20;19.30;;;;;;4919660;29;20440;-80
2024/03/19 13:33:52;;;;;;;9.70;9.30;;;16.10;19.10;;;;;;4921456;29;20184;-79
2024/03/19 13:36:17;;;;;;;8.73;8.30;;;16.10;19.10;;;;;;4930661;29;20270;-80
2024/03/19 13:38:48;;;;;;;9.30;8.90;;;16.10;19.10;;;;;;4923722;29;20672;-81
2024/03/19 13:41:14;;;;;;;8.70;8.30;;;16.10;19.10;;;;;;4921576;29;20200;-79
2024/03/19 13:43:40;;;;;;;9.10;8.80;;;16.10;19.10;;;;;;4909216;29;20428;-78
2024/03/19 13:46:06;;;;;;;10.33;9.83;;;16.10;19.10;;;;;;4904515;29;20893;-80
2024/03/19 13:48:32;;;;;;;9.90;9.50;;;16.10;19.10;;;;;;4908800;29;20428;-79
2024/03/19 13:51:01;;;;;;;9.43;8.93;;;16.10;19.10;;;;;;4940134;29;20826;-79
2024/03/19 13:53:27;;;;;;;9.67;9.17;;;16.10;19.10;;;;;;4922903;29;20467;-80
2024/03/19 13:55:53;;;;;;;7.97;7.67;;;16.10;19.10;;;;;;4923361;29;20431;-80
2024/03/19 13:58:19;;;;;;;8.70;8.30;;;16.10;19.10;;;;;;4938646;29;20460;-80
2024/03/19 14:00:44;;;;;;;8.63;8.00;;;16.10;19.10;;;;;;4939420;29;20692;-79
2024/03/19 14:03:11;;;;;;;8.50;8.10;;;16.10;19.10;;;;;;4938425;29;20475;-80
2024/03/19 14:05:41;;;;;;;9.30;8.80;;;16.00;19.00;;;;;;4939669;29;20416;-80
2024/03/19 14:08:08;;;;;;;9.30;8.87;;;16.10;19.10;;;;;;4940024;29;20800;-80
2024/03/19 14:10:34;;;;;;;9.70;9.10;;;16.10;19.10;;;;;;4914795;29;20447;-79
2024/03/19 14:13:01;;;;;;;9.30;8.80;;;16.10;19.10;;;;;;4938907;29;20571;-79
2024/03/19 14:15:27;;;;;;;8.73;8.33;;;16.20;19.10;;;;;;4927724;29;20886;-82
2024/03/19 14:17:53;;;;;;;9.07;8.53;;;16.20;18.70;;;;;;4921893;29;20425;-79
2024/03/19 14:20:19;;;;;;;8.60;8.20;;;16.10;17.90;;;;;;4921047;29;20232;-81
2024/03/19 14:22:45;;;;;;;8.70;8.40;;;16.10;18.20;;;;;;4904377;29;20180;-79
2024/03/19 14:25:10;;;;;;;8.40;8.00;;;16.10;18.60;;;;;;4930772;29;20427;-79
2024/03/19 14:27:36;;;;;;;8.97;8.57;;;16.20;18.80;;;;;;4923032;29;20495;-81
2024/03/19 14:30:03;;;;;;;9.00;8.53;;;16.20;18.30;;;;;;4939224;29;20219;-80
2024/03/19 14:32:30;;;;;;;8.60;8.20;;;16.20;18.40;;;;;;4903094;29;20272;-80
2024/03/19 14:34:56;;;;;;;8.83;8.43;;;16.30;19.00;;;;;;4904437;29;20488;-79
2024/03/19 14:37:21;;;;;;;9.73;9.13;;;16.30;19.20;;;;;;4921179;29;20492;-79
2024/03/19 14:39:47;;;;;;;9.33;8.83;;;16.30;19.20;;;;;;4926777;29;20198;-80
2024/03/19 14:42:13;;;;;;;8.83;8.30;;;16.30;19.20;;;;;;4923188;29;20318;-80
2024/03/19 14:44:38;;;;;;;9.60;9.10;;;16.40;18.90;;;;;;4939595;29;20184;-79
2024/03/19 14:47:05;;;;;;;8.70;8.40;;;16.40;19.30;;;;;;4923219;29;20569;-79
2024/03/19 14:49:30;;;;;;;10.53;9.93;;;16.40;18.80;;;;;;4941204;29;20298;-80
2024/03/19 14:52:16;;;;;;;9.20;8.70;;;16.40;19.20;;;;;;4933772;29;20464;-79
2024/03/19 14:54:42;;;;;;;8.87;8.47;;;16.40;19.30;;;;;;4906436;29;20201;-79
2024/03/19 14:57:08;;;;;;;8.97;8.47;;;16.40;18.90;;;;;;4922541;29;20421;-80
2024/03/19 14:59:36;;;;;;;8.10;7.80;;;16.40;19.00;;;;;;4903634;29;20301;-81
2024/03/19 15:02:02;;;;;;;8.30;8.00;;;16.40;18.90;;;;;;4921542;29;20181;-81
2024/03/19 15:04:29;;;;;;;8.30;8.00;;;16.30;18.90;;;;;;4914577;29;20429;-80
2024/03/19 15:06:55;;;;;;;8.30;7.70;;;16.30;18.70;;;;;;4924835;29;20488;-81
2024/03/19 15:09:21;;;;;;;8.63;8.23;;;16.30;18.90;;;;;;4928710;29;20810;-80
2024/03/19 15:11:47;;;;;;;8.88;8.48;;;16.30;18.80;;;;;;4919537;29;20501;-80
2024/03/19 15:14:39;;;;;;;8.33;8.03;;;16.30;18.50;;;;;;4929431;29;20251;-80
2024/03/19 15:17:05;;;;;;;9.00;8.50;;;16.30;18.50;;;;;;4921999;29;20892;-80
2024/03/19 15:19:30;;;;;;;8.53;8.00;;;16.30;18.70;;;;;;4911123;29;20460;-80
2024/03/19 15:22:02;;;;;;;8.83;8.33;;;16.30;19.20;;;;;;4915086;29;20311;-80
2024/03/19 15:24:28;;;;;;;9.57;8.93;;;16.30;18.30;;;;;;4927913;29;20188;-81
2024/03/19 15:26:53;;;;;;;8.90;8.50;;;16.30;17.70;;;;;;4927495;29;20415;-80
2024/03/19 15:29:19;;;;;;;8.47;8.03;;;16.30;18.00;;;;;;4930126;29;20177;-81
2024/03/19 15:31:44;;;;;;;8.43;8.13;;;16.20;18.00;;;;;;4911465;29;20205;-79
2024/03/19 15:34:12;;;;;;;9.07;8.47;;;16.20;18.70;;;;;;4915909;29;20513;-79
2024/03/19 15:36:41;;;;;;;8.53;7.93;;;16.20;17.50;;;;;;4931386;29;20210;-81
2024/03/19 15:39:07;;;;;;;8.40;7.90;;;16.20;17.60;;;;;;4925328;29;20940;-80
2024/03/19 15:41:39;;;;;;;7.67;7.37;;;16.30;17.70;;;;;;4916845;29;20444;-81
2024/03/19 15:44:05;;;;;;;8.70;8.30;;;16.30;16.90;;;;;;4924088;29;20440;-79
2024/03/19 15:46:45;;;;;;;8.60;8.20;;;16.20;17.40;;;;;;4914268;29;20432;-80
2024/03/19 15:49:17;;;;;;;8.00;7.70;;;16.20;18.00;;;;;;4911677;29;20456;-80
2024/03/19 15:51:46;;;;;;;7.73;7.40;;;16.20;17.00;;;;;;4915267;29;20452;-82
2024/03/19 15:54:29;;;;;;;8.30;7.90;;;16.20;18.60;;;;;;4917281;29;20425;-81
2024/03/19 15:56:54;;;;;;;8.20;7.60;;;16.20;18.10;;;;;;4915052;29;20558;-80
2024/03/19 15:59:26;;;;;;;7.63;7.33;;;16.20;18.60;;;;;;4912110;29;20185;-80
2024/03/19 16:01:52;;;;;;;7.73;7.33;;;16.20;17.90;;;;;;4920399;29;20479;-79
2024/03/19 16:04:18;;;;;;;7.90;7.60;;;16.20;17.80;;;;;;4920144;29;20914;-79
2024/03/19 16:06:46;;;;;;;8.27;7.77;;;16.30;17.50;;;;;;4914540;29;20195;-79
2024/03/19 16:09:12;;;;;;;8.00;7.70;;;16.30;17.20;;;;;;4930066;29;20232;-79
2024/03/19 16:11:38;;;;;;;7.90;7.50;;;16.20;16.90;;;;;;4912322;29;20957;-79
2024/03/19 16:14:06;;;;;;;7.87;7.47;;;16.20;17.00;;;;;;4916113;29;20185;-79
2024/03/19 16:16:33;;;;;;;7.30;7.00;;;16.20;16.90;;;;;;4894387;29;20180;-81
2024/03/19 16:18:58;;;;;;;7.70;7.30;;;16.20;16.90;;;;;;4919624;29;20425;-79
2024/03/19 16:21:24;;;;;;;8.00;7.60;;;16.20;17.20;;;;;;4918880;29;21912;-79
2024/03/19 16:23:49;;;;;;;7.57;7.20;;;16.10;17.00;;;;;;4919660;29;20192;-81
2024/03/19 16:26:15;;;;;;;7.63;7.33;;;16.10;16.90;;;;;;4922721;29;20245;-81
2024/03/19 16:28:47;;;;;;;7.10;6.70;;;16.10;17.20;;;;;;4919754;29;20731;-81
2024/03/19 16:31:13;;;;;;;8.00;7.50;;;16.10;17.50;;;;;;4903880;29;20220;-82
2024/03/19 16:33:38;;;;;;;7.00;6.70;;;16.20;17.30;;;;;;4899294;29;20417;-80
2024/03/19 16:36:04;;;;;;;7.50;7.00;;;16.20;17.70;;;;;;4922316;29;20260;-80
2024/03/19 16:38:30;;;;;;;7.80;6.47;;;16.30;17.40;;;;;;4922907;29;20275;-81
2024/03/19 16:40:56;;;;;;;6.97;6.77;;;16.30;16.90;;;;;;4905280;29;20583;-80
2024/03/19 16:43:23;;;;;;;6.50;6.00;;;16.30;16.90;;;;;;4918571;29;20436;-80
2024/03/19 16:45:49;;;;;;;7.20;6.80;;;16.30;17.20;;;;;;4920495;29;20653;-80
2024/03/19 16:48:14;;;;;;;7.50;7.17;;;16.40;16.70;;;;;;4921087;29;20460;-79
2024/03/19 16:50:40;;;;;;;7.17;6.90;;;16.40;16.70;;;;;;4927626;29;20196;-80
2024/03/19 16:53:05;;;;;;;7.33;6.90;;;16.40;16.90;;;;;;4920775;29;20177;-79
2024/03/19 16:55:32;;;;;;;7.07;6.77;;;16.40;16.90;;;;;;4922809;29;20231;-82
2024/03/19 16:57:57;;;;;;;7.30;7.00;;;16.40;17.00;;;;;;4906418;29;20193;-80
2024/03/19 17:00:23;;;;;;;7.53;7.20;;;16.40;17.10;;;;;;4923770;29;20831;-81
2024/03/19 17:02:48;;;;;;;6.87;6.47;;;16.40;17.10;;;;;;4922800;29;20755;-80
2024/03/19 17:05:14;;;;;;;6.17;5.87;;;16.40;17.20;;;;;;4906016;29;20228;-81
2024/03/19 17:07:40;;;;;;;6.40;6.10;;;16.30;17.20;;;;;;4908050;29;20208;-80
2024/03/19 17:10:06;;;;;;;7.37;7.07;;;16.40;17.80;;;;;;4925996;29;20193;-80
2024/03/19 17:12:32;;;;;;;6.77;6.47;;;16.30;17.70;;;;;;4931381;29;20449;-81
2024/03/19 17:14:58;;;;;;;7.47;7.20;;;16.30;17.90;;;;;;4926575;29;20886;-80
2024/03/19 17:17:23;;;;;;;7.60;7.10;;;16.30;18.10;;;;;;4926213;29;20259;-80
2024/03/19 17:19:49;;;;;;;8.00;7.40;;;16.30;18.60;;;;;;4930748;29;20185;-80
2024/03/19 17:22:14;;;;;;;6.70;6.40;;;16.30;19.20;;;;;;4915966;29;20193;-80
2024/03/19 17:24:40;;;;;;;7.93;7.23;;;16.20;19.10;;;;;;4933283;29;20180;-81
2024/03/19 17:27:05;;;;;;;7.10;6.80;;;16.20;19.10;;;;;;4926084;29;20188;-80
2024/03/19 17:29:31;;;;;;;7.13;6.83;;;16.20;19.10;;;;;;4925504;29;20219;-80
2024/03/19 17:31:57;;;;;;;6.80;6.50;;;16.10;19.30;;;;;;4927055;29;20197;-80
2024/03/19 17:34:22;;;;;;;7.73;7.33;;;16.10;19.50;;;;;;4926830;29;20184;-79
2024/03/19 17:36:48;;;;;;;10.43;9.47;;;16.10;20.00;;;;;;4925313;29;20232;-79
2024/03/19 17:39:14;;;;;;;7.70;7.30;;;16.10;20.50;;;;;;4927477;29;20180;-80
2024/03/19 17:41:39;;;;;;;7.17;6.87;;;16.00;20.60;;;;;;4926288;29;20201;-79
2024/03/19 17:44:05;;;;;;;6.43;6.13;;;15.90;20.50;;;;;;4935144;29;20173;-79
2024/03/19 17:46:32;;;;;;;6.90;6.50;;;15.90;20.90;;;;;;4927947;29;20177;-80
2024/03/19 17:48:58;;;;;;;7.97;7.47;;;15.90;21.10;;;;;;4944855;29;20216;-80
2024/03/19 17:51:23;;;;;;;8.37;7.87;;;15.80;21.30;;;;;;4905893;29;20441;-79
2024/03/19 17:53:49;;;;;;;9.30;8.50;;;15.80;21.50;;;;;;4920818;29;20259;-79
2024/03/19 17:56:14;;;;;;;9.63;8.93;;;15.90;21.50;;;;;;4920207;29;20232;-79
2024/03/19 17:58:40;;;;;;;8.00;7.70;;;15.80;21.70;;;;;;4920169;29;20177;-79
2024/03/19 18:01:07;;;;;;;9.07;8.67;;;15.70;21.80;;;;;;4921815;29;20569;-81
2024/03/19 18:03:33;;;;;;;8.37;7.97;;;15.70;21.90;;;;;;4928896;29;20177;-81
2024/03/19 18:06:05;;;;;;;9.63;9.13;;;15.60;22.20;;;;;;4938383;29;20423;-78
2024/03/19 18:08:31;;;;;;;9.60;9.00;;;15.60;22.30;;;;;;4919349;29;21023;-80
2024/03/19 18:11:09;;;;;;;9.47;9.03;;;15.60;22.50;;;;;;4920246;29;20440;-80